Time;durP1;ratioP1;P1;durP2;ratioP2;P2;SDS_P1;SDS_P2;PMS_P1;PMS_P2;Temp;Humidity;BMP_temperature;BMP_pressure;BME280_temperature;BME280_humidity;BME280_pressure;Samples;Min_cycle;Max_cycle;Signal;HPM_P1;HPM_P2
2023/10/28 00:00:29;;;;;;;;;;;;;;;18.53;100.00;98662.44;4958654;28;1543;-66
2023/10/28 00:02:56;;;;;;;;;;;;;;;18.46;100.00;98674.78;4976114;28;819;-67
2023/10/28 00:05:23;;;;;;;;;;;;;;;18.40;100.00;98661.97;4976183;28;807;-66
2023/10/28 00:07:50;;;;;;;;;;;;;;;18.29;100.00;98656.97;4975840;28;819;-66
2023/10/28 00:10:18;;;;;;;;;;;;;;;18.26;100.00;98671.91;4975787;28;879;-66
2023/10/28 00:12:45;;;;;;;;;;;;;;;18.22;100.00;98655.34;4975740;28;831;-67
2023/10/28 00:15:13;;;;;;;;;;;;;;;18.20;100.00;98662.63;4975674;28;1038;-66
2023/10/28 00:17:40;;;;;;;;;;;;;;;18.14;100.00;98659.75;4975781;28;855;-67
2023/10/28 00:20:08;;;;;;;;;;;;;;;18.08;100.00;98661.69;4975556;28;1879;-66
2023/10/28 00:22:35;;;;;;;;;;;;;;;18.08;100.00;98659.66;4975597;28;1352;-66
2023/10/28 00:25:01;;;;;;;;;;;;;;;18.03;100.00;98651.94;4975571;28;831;-66
2023/10/28 00:27:28;;;;;;;;;;;;;;;18.01;100.00;98651.66;4975559;28;819;-66
2023/10/28 00:29:54;;;;;;;;;;;;;;;17.93;100.00;98653.28;4975670;28;862;-67
2023/10/28 00:32:22;;;;;;;;;;;;;;;17.89;100.00;98661.09;4975450;28;886;-66
2023/10/28 00:34:49;;;;;;;;;;;;;;;17.81;100.00;98662.69;4975303;28;819;-66
2023/10/28 00:37:17;;;;;;;;;;;;;;;17.72;100.00;98652.38;4975379;28;803;-67
2023/10/28 00:39:44;;;;;;;;;;;;;;;17.63;100.00;98655.25;4975279;28;1973;-67
2023/10/28 00:42:13;;;;;;;;;;;;;;;17.55;100.00;98652.81;4975186;28;857;-67
2023/10/28 00:44:40;;;;;;;;;;;;;;;17.45;100.00;98659.72;4975310;28;812;-67
2023/10/28 00:47:06;;;;;;;;;;;;;;;17.32;100.00;98650.81;4975149;28;792;-66
2023/10/28 00:49:33;;;;;;;;;;;;;;;17.20;100.00;98651.81;4975129;28;835;-66
2023/10/28 00:52:00;;;;;;;;;;;;;;;17.07;100.00;98649.28;4975079;28;875;-66
2023/10/28 00:54:27;;;;;;;;;;;;;;;16.99;100.00;98657.25;4975072;28;821;-66
2023/10/28 00:56:54;;;;;;;;;;;;;;;16.96;100.00;98660.97;4974963;28;804;-66
2023/10/28 00:59:20;;;;;;;;;;;;;;;16.93;100.00;98657.13;4974078;28;1890;-66
2023/10/28 01:01:47;;;;;;;;;;;;;;;16.96;100.00;98657.41;4974891;28;811;-66
2023/10/28 01:04:15;;;;;;;;;;;;;;;16.99;100.00;98667.66;4974779;28;851;-66
2023/10/28 01:06:42;;;;;;;;;;;;;;;16.98;100.00;98663.28;4974813;28;914;-66
2023/10/28 01:09:08;;;;;;;;;;;;;;;16.97;100.00;98664.56;4974965;28;846;-66
2023/10/28 01:11:39;;;;;;;;;;;;;;;16.92;100.00;98672.31;4974783;28;819;-66
2023/10/28 01:14:06;;;;;;;;;;;;;;;16.90;100.00;98672.03;4974583;28;795;-66
2023/10/28 01:16:34;;;;;;;;;;;;;;;16.88;100.00;98660.56;4974598;28;936;-66
2023/10/28 01:19:00;;;;;;;;;;;;;;;16.86;100.00;98657.47;4974496;28;1926;-66
2023/10/28 01:21:28;;;;;;;;;;;;;;;16.87;100.00;98663.81;4974444;28;2391;-66
2023/10/28 01:23:56;;;;;;;;;;;;;;;16.88;100.00;98652.19;4974297;28;1456;-66
2023/10/28 01:26:23;;;;;;;;;;;;;;;16.90;100.00;98657.31;4974489;28;893;-66
2023/10/28 01:28:50;;;;;;;;;;;;;;;16.90;100.00;98658.06;4974307;28;811;-66
2023/10/28 01:31:17;;;;;;;;;;;;;;;16.91;100.00;98653.25;4974361;28;819;-66
2023/10/28 01:33:44;;;;;;;;;;;;;;;16.95;100.00;98648.28;4974226;28;830;-66
2023/10/28 01:36:10;;;;;;;;;;;;;;;17.01;100.00;98659.56;4974219;28;808;-66
2023/10/28 01:38:37;;;;;;;;;;;;;;;17.02;100.00;98655.53;4974024;28;1914;-66
2023/10/28 01:41:04;;;;;;;;;;;;;;;17.00;100.00;98666.38;4974163;28;855;-66
2023/10/28 01:43:30;;;;;;;;;;;;;;;17.02;100.00;98670.25;4974176;28;866;-66
2023/10/28 01:45:56;;;;;;;;;;;;;;;17.00;100.00;98674.75;4974056;28;804;-66
2023/10/28 01:48:22;;;;;;;;;;;;;;;16.94;100.00;98675.41;4973978;28;915;-66
2023/10/28 01:50:49;;;;;;;;;;;;;;;16.92;100.00;98683.50;4973999;28;898;-66
2023/10/28 01:53:16;;;;;;;;;;;;;;;16.88;100.00;98682.88;4973924;28;800;-66
2023/10/28 01:55:44;;;;;;;;;;;;;;;16.86;100.00;98695.78;4973863;28;986;-66
2023/10/28 01:58:11;;;;;;;;;;;;;;;16.82;100.00;98690.34;4973875;28;2011;-66
2023/10/28 02:00:37;;;;;;;;;;;;;;;16.75;100.00;98690.69;4973702;28;864;-66
2023/10/28 02:03:07;;;;;;;;;;;;;;;16.67;100.00;98689.47;4973846;28;867;-66
2023/10/28 02:05:34;;;;;;;;;;;;;;;16.57;100.00;98688.72;4973662;28;878;-66
2023/10/28 02:08:01;;;;;;;;;;;;;;;16.46;100.00;98705.19;4973669;28;889;-66
2023/10/28 02:10:27;;;;;;;;;;;;;;;16.35;100.00;98699.34;4973406;28;838;-66
2023/10/28 02:12:54;;;;;;;;;;;;;;;16.34;100.00;98709.69;4973858;28;873;-66
2023/10/28 02:15:21;;;;;;;;;;;;;;;16.29;100.00;98694.38;4973544;28;842;-66
2023/10/28 02:17:48;;;;;;;;;;;;;;;16.25;100.00;98695.78;4973570;28;866;-66
2023/10/28 02:20:14;;;;;;;;;;;;;;;16.19;100.00;98698.44;4973423;28;1891;-66
2023/10/28 02:22:42;;;;;;;;;;;;;;;16.11;100.00;98695.22;4973527;28;1289;-66
2023/10/28 02:25:10;;;;;;;;;;;;;;;15.96;100.00;98690.72;4973496;28;851;-65
2023/10/28 02:27:37;;;;;;;;;;;;;;;15.84;100.00;98707.16;4973362;28;819;-66
2023/10/28 02:30:07;;;;;;;;;;;;;;;15.65;100.00;98711.91;4973450;28;799;-65
2023/10/28 02:32:33;;;;;;;;;;;;;;;15.50;100.00;98714.53;4973525;28;911;-66
2023/10/28 02:35:00;;;;;;;;;;;;;;;15.39;100.00;98707.88;4973190;28;839;-66
2023/10/28 02:37:27;;;;;;;;;;;;;;;15.27;100.00;98715.88;4973303;28;853;-65
2023/10/28 02:39:54;;;;;;;;;;;;;;;15.15;100.00;98719.59;4973100;28;1976;-65
2023/10/28 02:42:23;;;;;;;;;;;;;;;15.00;100.00;98707.47;4973255;28;881;-65
2023/10/28 02:44:50;;;;;;;;;;;;;;;14.88;100.00;98723.06;4973137;28;870;-66
2023/10/28 02:47:17;;;;;;;;;;;;;;;14.75;100.00;98720.38;4973123;28;858;-65
2023/10/28 02:49:43;;;;;;;;;;;;;;;14.64;100.00;98720.03;4973158;28;847;-66
2023/10/28 02:52:10;;;;;;;;;;;;;;;14.55;100.00;98715.19;4973036;28;840;-65
2023/10/28 02:54:36;;;;;;;;;;;;;;;14.50;100.00;98716.50;4973006;28;816;-65
2023/10/28 02:57:03;;;;;;;;;;;;;;;14.60;100.00;98722.94;4973390;28;804;-65
2023/10/28 02:59:30;;;;;;;;;;;;;;;14.61;100.00;98715.38;4972944;28;1882;-66
2023/10/28 03:01:57;;;;;;;;;;;;;;;14.64;100.00;98714.47;4972976;28;816;-66
2023/10/28 03:04:24;;;;;;;;;;;;;;;14.64;100.00;98720.78;4972948;28;904;-66
2023/10/28 03:06:51;;;;;;;;;;;;;;;14.63;100.00;98722.00;4972929;28;842;-65
2023/10/28 03:09:17;;;;;;;;;;;;;;;14.64;100.00;98717.25;4972941;28;800;-65
2023/10/28 03:11:45;;;;;;;;;;;;;;;14.59;100.00;98723.38;4972849;28;886;-66
2023/10/28 03:14:12;;;;;;;;;;;;;;;14.46;100.00;98721.44;4973050;28;823;-65
2023/10/28 03:16:39;;;;;;;;;;;;;;;14.38;100.00;98722.94;4955435;28;1214;-65
2023/10/28 03:19:05;;;;;;;;;;;;;;;14.42;100.00;98729.16;4972776;28;1882;-65
2023/10/28 03:21:32;;;;;;;;;;;;;;;14.40;100.00;98734.41;4974302;28;940;-66
2023/10/28 03:23:59;;;;;;;;;;;;;;;14.40;100.00;98730.81;4976539;28;1524;-66
2023/10/28 03:26:25;;;;;;;;;;;;;;;14.43;100.00;98736.25;4976622;28;909;-66
2023/10/28 03:28:52;;;;;;;;;;;;;;;14.41;100.00;98738.72;4976561;28;823;-66
2023/10/28 03:31:19;;;;;;;;;;;;;;;14.28;100.00;98741.56;4976482;28;859;-65
2023/10/28 03:33:46;;;;;;;;;;;;;;;14.29;100.00;98756.22;4976407;28;886;-65
2023/10/28 03:36:12;;;;;;;;;;;;;;;14.21;100.00;98749.38;4976828;28;827;-65
2023/10/28 03:38:39;;;;;;;;;;;;;;;14.17;100.00;98741.19;4976330;28;1930;-65
2023/10/28 03:41:06;;;;;;;;;;;;;;;14.15;100.00;98757.53;4976538;28;871;-65
2023/10/28 03:43:33;;;;;;;;;;;;;;;14.06;100.00;98752.69;4976243;28;862;-65
2023/10/28 03:45:59;;;;;;;;;;;;;;;13.99;100.00;98752.94;4976602;28;841;-65
2023/10/28 03:48:26;;;;;;;;;;;;;;;13.93;100.00;98773.41;4976464;28;914;-65
2023/10/28 03:51:00;;;;;;;;;;;;;;;13.94;100.00;98766.63;4976255;28;843;-65
2023/10/28 03:53:26;;;;;;;;;;;;;;;13.95;100.00;98776.50;4976148;28;839;-65
2023/10/28 03:55:53;;;;;;;;;;;;;;;13.97;100.00;98777.59;4976170;28;854;-65
2023/10/28 03:58:19;;;;;;;;;;;;;;;13.96;100.00;98780.84;4974783;28;1902;-65
2023/10/28 04:00:48;;;;;;;;;;;;;;;13.96;100.00;98786.41;4974715;28;1554;-65
2023/10/28 04:03:15;;;;;;;;;;;;;;;13.93;100.00;98781.75;4976206;28;1231;-65
2023/10/28 04:05:42;;;;;;;;;;;;;;;13.92;100.00;98796.88;4975870;28;842;-65
2023/10/28 04:08:08;;;;;;;;;;;;;;;13.85;100.00;98792.34;4975931;28;863;-65
2023/10/28 04:10:34;;;;;;;;;;;;;;;13.79;100.00;98800.47;4975783;28;890;-65
2023/10/28 04:13:01;;;;;;;;;;;;;;;13.78;100.00;98795.34;4975890;28;788;-65
2023/10/28 04:15:35;;;;;;;;;;;;;;;13.89;100.00;98804.09;4975712;28;854;-65
2023/10/28 04:18:02;;;;;;;;;;;;;;;13.94;100.00;98789.63;4958370;28;1189;-65
2023/10/28 04:20:28;;;;;;;;;;;;;;;13.97;100.00;98799.84;4975696;28;1954;-65
2023/10/28 04:22:55;;;;;;;;;;;;;;;14.00;100.00;98798.94;4975601;28;1214;-65
2023/10/28 04:25:21;;;;;;;;;;;;;;;14.02;100.00;98813.16;4975643;28;910;-65
2023/10/28 04:27:48;;;;;;;;;;;;;;;13.98;100.00;98823.63;4975944;28;811;-65
2023/10/28 04:30:15;;;;;;;;;;;;;;;14.04;100.00;98821.06;4975580;28;902;-65
2023/10/28 04:32:42;;;;;;;;;;;;;;;14.17;100.00;98819.00;4975378;28;954;-65
2023/10/28 04:35:11;;;;;;;;;;;;;;;14.31;100.00;98820.47;4975689;28;910;-65
2023/10/28 04:37:38;;;;;;;;;;;;;;;14.39;100.00;98818.22;4975480;28;850;-65
2023/10/28 04:40:05;;;;;;;;;;;;;;;14.42;100.00;98829.22;4975310;28;1910;-65
2023/10/28 04:42:32;;;;;;;;;;;;;;;14.36;100.00;98828.25;4975205;28;871;-65
2023/10/28 04:44:58;;;;;;;;;;;;;;;14.23;100.00;98828.31;4975338;28;800;-65
2023/10/28 04:47:25;;;;;;;;;;;;;;;14.17;100.00;98832.91;4975115;28;926;-65
2023/10/28 04:49:51;;;;;;;;;;;;;;;14.11;100.00;98834.69;4975195;28;804;-65
2023/10/28 04:52:20;;;;;;;;;;;;;;;14.01;100.00;98833.81;4975140;28;856;-66
2023/10/28 04:54:46;;;;;;;;;;;;;;;13.97;100.00;98835.19;4975075;28;839;-65
2023/10/28 04:57:13;;;;;;;;;;;;;;;13.93;100.00;98831.75;4975043;28;834;-66
2023/10/28 04:59:40;;;;;;;;;;;;;;;13.91;100.00;98829.41;4973668;28;1943;-65
2023/10/28 05:02:06;;;;;;;;;;;;;;;13.98;100.00;98833.97;4974956;28;828;-65
2023/10/28 05:04:33;;;;;;;;;;;;;;;14.06;100.00;98838.81;4974875;28;819;-65
2023/10/28 05:07:01;;;;;;;;;;;;;;;14.18;100.00;98844.78;4975046;28;808;-65
2023/10/28 05:09:28;;;;;;;;;;;;;;;14.30;100.00;98847.50;4975065;28;895;-66
2023/10/28 05:11:58;;;;;;;;;;;;;;;14.36;100.00;98855.25;4974739;28;843;-65
2023/10/28 05:14:25;;;;;;;;;;;;;;;14.43;100.00;98863.38;4974716;28;894;-65
2023/10/28 05:16:54;;;;;;;;;;;;;;;14.48;100.00;98863.53;4974604;28;905;-65
2023/10/28 05:19:22;;;;;;;;;;;;;;;14.61;100.00;98860.72;4974510;28;1955;-66
2023/10/28 05:21:48;;;;;;;;;;;;;;;14.74;100.00;98877.34;4974635;28;1329;-66
2023/10/28 05:24:15;;;;;;;;;;;;;;;14.90;100.00;98884.72;4974479;28;870;-66
2023/10/28 05:26:43;;;;;;;;;;;;;;;15.44;100.00;98889.00;4974528;28;944;-66
2023/10/28 05:29:10;;;;;;;;;;;;;;;15.98;100.00;98889.69;4974353;28;828;-66
2023/10/28 05:31:37;;;;;;;;;;;;;;;16.44;100.00;98902.88;4974188;28;855;-66
2023/10/28 05:34:02;;;;;;;;;;;;;;;16.91;100.00;98905.19;4974297;28;847;-66
2023/10/28 05:36:29;;;;;;;;;;;;;;;17.44;100.00;98917.19;4974516;28;844;-66
2023/10/28 05:38:55;;;;;;;;;;;;;;;17.68;100.00;98918.00;4974183;28;1906;-67
2023/10/28 05:41:22;;;;;;;;;;;;;;;17.94;100.00;98929.56;4972831;28;1253;-66
2023/10/28 05:43:49;;;;;;;;;;;;;;;18.39;100.00;98928.97;4973786;28;885;-66
2023/10/28 05:46:17;;;;;;;;;;;;;;;18.75;100.00;98937.09;4974050;28;784;-67
2023/10/28 05:48:44;;;;;;;;;;;;;;;18.88;100.00;98941.66;4974381;28;855;-65
2023/10/28 05:51:11;;;;;;;;;;;;;;;19.28;100.00;98941.09;4974042;28;981;-65
2023/10/28 05:53:38;;;;;;;;;;;;;;;19.76;100.00;98940.88;4973939;28;886;-66
2023/10/28 05:56:05;;;;;;;;;;;;;;;20.22;100.00;98949.94;4974087;28;1012;-68
2023/10/28 05:58:31;;;;;;;;;;;;;;;20.53;100.00;98944.47;4973767;28;1886;-67
2023/10/28 06:01:02;;;;;;;;;;;;;;;20.77;100.00;98954.72;4956340;28;2398;-66
2023/10/28 06:03:28;;;;;;;;;;;;;;;20.64;100.00;98963.53;4973760;28;878;-67
2023/10/28 06:05:55;;;;;;;;;;;;;;;20.31;100.00;98961.81;4973789;28;823;-68
2023/10/28 06:08:22;;;;;;;;;;;;;;;20.23;100.00;98962.69;4973620;28;831;-66
2023/10/28 06:10:48;;;;;;;;;;;;;;;20.39;100.00;98957.31;4973727;28;886;-68
2023/10/28 06:13:15;;;;;;;;;;;;;;;20.36;100.00;98954.72;4973608;28;847;-67
2023/10/28 06:15:42;;;;;;;;;;;;;;;20.61;100.00;98953.25;4973681;28;800;-68
2023/10/28 06:18:08;;;;;;;;;;;;;;;21.05;100.00;98959.88;4973503;28;847;-70
2023/10/28 06:20:35;;;;;;;;;;;;;;;21.24;100.00;98961.09;4973466;28;1949;-69
2023/10/28 06:23:04;;;;;;;;;;;;;;;21.49;100.00;98959.56;4973338;28;1313;-67
2023/10/28 06:25:30;;;;;;;;;;;;;;;21.62;100.00;98970.41;4973421;28;823;-69
2023/10/28 06:27:56;;;;;;;;;;;;;;;21.59;100.00;98968.56;4973445;28;817;-68
2023/10/28 06:30:23;;;;;;;;;;;;;;;21.60;100.00;98968.06;4973214;28;815;-69
2023/10/28 06:32:50;;;;;;;;;;;;;;;21.84;100.00;98960.59;4973388;28;807;-69
2023/10/28 06:35:16;;;;;;;;;;;;;;;21.98;100.00;98970.91;4955934;28;891;-69
2023/10/28 06:37:43;;;;;;;;;;;;;;;22.05;100.00;98966.88;4973230;28;859;-67
2023/10/28 06:40:12;;;;;;;;;;;;;;;22.40;100.00;98972.19;4973359;28;1899;-66
2023/10/28 06:42:38;;;;;;;;;;;;;;;22.79;100.00;98978.00;4973232;28;823;-66
2023/10/28 06:45:05;;;;;;;;;;;;;;;23.17;100.00;98987.09;4973105;28;851;-66
2023/10/28 06:47:33;;;;;;;;;;;;;;;23.53;100.00;98989.44;4973123;28;902;-66
2023/10/28 06:50:04;;;;;;;;;;;;;;;23.78;100.00;98990.50;4973074;28;831;-67
2023/10/28 06:52:31;;;;;;;;;;;;;;;24.02;100.00;98993.53;4973020;28;807;-66
2023/10/28 06:55:02;;;;;;;;;;;;;;;24.07;100.00;98986.38;4971497;28;951;-67
2023/10/28 06:57:30;;;;;;;;;;;;;;;24.15;100.00;98995.06;4972493;28;835;-68
2023/10/28 06:59:58;;;;;;;;;;;;;;;24.20;100.00;98997.91;4972798;28;1938;-67
2023/10/28 07:02:25;;;;;;;;;;;;;;;24.57;97.23;99005.25;4972881;28;828;-68
2023/10/28 07:04:52;;;;;;;;;;;;;;;25.33;93.84;99003.13;4973007;28;901;-68
2023/10/28 07:07:19;;;;;;;;;;;;;;;25.99;85.81;98999.53;4972843;28;974;-69
2023/10/28 07:09:46;;;;;;;;;;;;;;;26.28;81.34;99004.38;4972963;28;855;-69
2023/10/28 07:12:13;;;;;;;;;;;;;;;26.15;80.32;99014.81;4972818;28;905;-69
2023/10/28 07:14:39;;;;;;;;;;;;;;;26.01;78.99;99020.38;4972860;28;867;-69
2023/10/28 07:17:06;;;;;;;;;;;;;;;25.90;78.70;99019.69;4972948;28;891;-69
2023/10/28 07:19:32;;;;;;;;;;;;;;;26.15;77.94;99012.75;4972743;28;1914;-68
2023/10/28 07:21:59;;;;;;;;;;;;;;;26.66;75.35;99018.66;4972802;28;969;-68
2023/10/28 07:24:31;;;;;;;;;;;;;;;26.91;74.64;99007.28;4972797;28;940;-69
2023/10/28 07:26:58;;;;;;;;;;;;;;;26.75;74.31;99022.44;4972737;28;933;-69
2023/10/28 07:29:25;;;;;;;;;;;;;;;26.62;71.90;99015.38;4972760;28;1183;-70
2023/10/28 07:31:53;;;;;;;;;;;;;;;26.45;71.67;99020.44;4972792;28;1256;-69
2023/10/28 07:34:20;;;;;;;;;;;;;;;25.99;72.47;99022.97;4973084;28;878;-69
2023/10/28 07:36:46;;;;;;;;;;;;;;;25.88;73.34;99025.84;4972837;28;1197;-69
2023/10/28 07:39:13;;;;;;;;;;;;;;;26.25;72.90;99027.34;4972882;28;1915;-69
2023/10/28 07:41:42;;;;;;;;;;;;;;;26.68;70.67;99024.56;4955576;28;1317;-69
2023/10/28 07:44:09;;;;;;;;;;;;;;;26.65;70.91;99019.97;4972727;28;804;-69
2023/10/28 07:46:35;;;;;;;;;;;;;;;26.59;70.70;99027.03;4972876;28;824;-69
2023/10/28 07:49:02;;;;;;;;;;;;;;;26.68;69.36;99020.97;4972867;28;947;-70
2023/10/28 07:51:27;;;;;;;;;;;;;;;26.66;69.70;99021.50;4972734;28;1194;-69
2023/10/28 07:53:54;;;;;;;;;;;;;;;26.71;65.99;99024.81;4972421;28;874;-69
2023/10/28 07:56:20;;;;;;;;;;;;;;;26.74;64.58;99024.50;4972516;28;893;-68
2023/10/28 07:58:47;;;;;;;;;;;;;;;26.53;65.18;99027.03;4972336;28;1892;-68
2023/10/28 08:01:17;;;;;;;;;;;;;;;26.63;64.92;99025.41;4972423;28;866;-70
2023/10/28 08:03:45;;;;;;;;;;;;;;;26.98;63.47;99026.53;4972690;28;1180;-69
2023/10/28 08:06:12;;;;;;;;;;;;;;;26.94;63.32;99028.91;4972501;28;811;-68
2023/10/28 08:08:41;;;;;;;;;;;;;;;27.00;61.49;99040.19;4975450;28;871;-69
2023/10/28 08:11:12;;;;;;;;;;;;;;;26.96;59.67;99034.03;4976034;28;850;-70
2023/10/28 08:13:40;;;;;;;;;;;;;;;26.59;59.93;99036.28;4975919;28;827;-68
2023/10/28 08:16:09;;;;;;;;;;;;;;;26.43;58.99;99040.78;4975973;28;764;-70
2023/10/28 08:18:36;;;;;;;;;;;;;;;26.30;59.29;99046.34;4975671;28;2015;-69
2023/10/28 08:21:02;;;;;;;;;;;;;;;26.52;59.00;99031.16;4975620;28;971;-69
2023/10/28 08:23:29;;;;;;;;;;;;;;;26.82;57.97;99036.78;4975606;28;1283;-69
2023/10/28 08:25:56;;;;;;;;;;;;;;;26.82;57.59;99039.63;4975832;28;859;-70
2023/10/28 08:28:23;;;;;;;;;;;;;;;26.72;58.15;99040.53;4975445;28;836;-71
2023/10/28 08:30:50;;;;;;;;;;;;;;;26.82;58.11;99033.16;4975812;28;886;-70
2023/10/28 08:33:17;;;;;;;;;;;;;;;27.23;57.01;99037.84;4975466;28;850;-70
2023/10/28 08:35:44;;;;;;;;;;;;;;;27.49;55.29;99045.72;4975417;28;827;-70
2023/10/28 08:38:10;;;;;;;;;;;;;;;27.75;54.21;99044.28;4975359;28;894;-70
2023/10/28 08:40:37;;;;;;;;;;;;;;;27.88;52.40;99052.88;4973988;28;1962;-71
2023/10/28 08:43:04;;;;;;;;;;;;;;;27.44;52.53;99057.91;4975266;28;1009;-69
2023/10/28 08:45:31;;;;;;;;;;;;;;;27.39;52.71;99053.06;4975300;28;878;-69
2023/10/28 08:47:58;;;;;;;;;;;;;;;27.18;53.01;99049.97;4975229;28;866;-68
2023/10/28 08:50:25;;;;;;;;;;;;;;;27.28;52.97;99045.50;4975177;28;831;-69
2023/10/28 09:23:53;;;;;;;;;;;;;;;27.81;49.02;99036.44;5033773;23;2169;-69
2023/10/28 09:26:19;;;;;;;;;;;;;;;27.64;49.46;99033.88;4974503;28;878;-69
2023/10/28 09:28:46;;;;;;;;;;;;;;;27.99;48.42;99026.34;4974403;28;823;-69
2023/10/28 09:31:23;;;;;;;;;;;;;;;28.23;47.75;99023.34;4974426;28;799;-69
2023/10/28 09:33:50;;;;;;;;;;;;;;;28.35;46.74;99017.47;4974530;28;875;-68
2023/10/28 09:36:17;;;;;;;;;;;;;;;28.43;45.80;99024.78;4974550;28;807;-69
2023/10/28 09:38:45;;;;;;;;;;;;;;;28.35;45.07;99020.28;4956992;28;1918;-70
2023/10/28 09:41:14;;;;;;;;;;;;;;;28.08;45.01;99021.03;4974317;28;909;-69
2023/10/28 09:43:40;;;;;;;;;;;;;;;27.91;45.11;99009.22;4974196;28;922;-69
2023/10/28 09:46:08;;;;;;;;;;;;;;;27.75;44.67;99027.25;4974077;28;863;-68
2023/10/28 09:48:45;;;;;;;;;;;;;;;27.66;45.19;99023.50;4974162;28;870;-69
2023/10/28 09:51:13;;;;;;;;;;;;;;;27.73;45.63;99015.69;4974023;28;917;-69
2023/10/28 09:53:43;;;;;;;;;;;;;;;27.99;45.34;99010.06;4973946;28;803;-69
2023/10/28 09:56:12;;;;;;;;;;;;;;;28.05;45.51;99013.59;4973884;28;835;-70
2023/10/28 09:58:41;;;;;;;;;;;;;;;28.14;44.83;99018.06;4973963;28;1942;-69
2023/10/28 10:01:08;;;;;;;;;;;;;;;28.43;44.13;99021.94;4974020;28;890;-68
2023/10/28 10:03:53;;;;;;;;;;;;;;;28.57;43.62;99019.91;4974188;28;788;-70
2023/10/28 10:06:21;;;;;;;;;;;;;;;28.45;43.13;99013.63;4973745;28;823;-69
2023/10/28 10:08:49;;;;;;;;;;;;;;;28.40;43.82;99025.09;4973668;28;1262;-71
2023/10/28 10:11:20;;;;;;;;;;;;;;;28.59;43.49;99025.81;4973930;28;1187;-70
2023/10/28 10:13:47;;;;;;;;;;;;;;;28.40;42.98;99022.25;4973651;28;859;-72
2023/10/28 10:16:19;;;;;;;;;;;;;;;27.98;43.47;99016.31;4973647;28;819;-70
2023/10/28 10:18:50;;;;;;;;;;;;;;;27.78;44.16;99009.91;4973508;28;1957;-71
2023/10/28 10:21:22;;;;;;;;;;;;;;;27.88;44.81;99011.03;4973790;28;827;-72
2023/10/28 10:23:52;;;;;;;;;;;;;;;27.97;44.38;99007.00;4973206;28;1207;-70
2023/10/28 10:26:22;;;;;;;;;;;;;;;28.15;43.80;99005.41;4973765;28;886;-70
2023/10/28 10:28:51;;;;;;;;;;;;;;;28.37;43.57;99004.22;4973392;28;815;-69
2023/10/28 10:31:19;;;;;;;;;;;;;;;28.35;43.52;99018.22;4973145;28;867;-70
2023/10/28 10:33:45;;;;;;;;;;;;;;;28.47;42.93;99002.47;4973378;28;839;-70
2023/10/28 10:36:18;;;;;;;;;;;;;;;28.67;43.08;99003.91;4973363;28;935;-70
2023/10/28 10:38:54;;;;;;;;;;;;;;;28.89;42.62;99008.38;4973089;28;1907;-66
2023/10/28 10:41:28;;;;;;;;;;;;;;;28.87;43.03;99008.16;4973408;28;1191;-66
2023/10/28 10:43:54;;;;;;;;;;;;;;;28.86;43.07;99012.31;4973292;28;862;-69
2023/10/28 10:46:21;;;;;;;;;;;;;;;28.78;43.48;99011.44;4973075;28;917;-68
2023/10/28 10:48:48;;;;;;;;;;;;;;;28.81;43.23;99009.59;4973249;28;870;-69
2023/10/28 10:51:15;;;;;;;;;;;;;;;29.03;43.33;99005.50;4972993;28;820;-67
2023/10/28 10:53:43;;;;;;;;;;;;;;;29.36;42.80;99006.09;4973131;28;835;-65
2023/10/28 10:56:19;;;;;;;;;;;;;;;29.46;42.80;99007.91;4973012;28;855;-66
2023/10/28 10:58:45;;;;;;;;;;;;;;;29.57;42.55;99008.97;4972977;28;1891;-68
2023/10/28 11:01:12;;;;;;;;;;;;;;;29.27;42.88;99005.22;4973041;28;834;-68
2023/10/28 11:03:39;;;;;;;;;;;;;;;29.24;43.32;99009.19;4973251;28;799;-73
2023/10/28 11:06:09;;;;;;;;;;;;;;;29.27;43.71;99007.31;4973054;28;890;-74
2023/10/28 11:08:36;;;;;;;;;;;;;;;29.53;43.25;99012.13;4954916;28;1389;-71
2023/10/28 11:11:03;;;;;;;;;;;;;;;29.71;42.82;98999.06;4973055;28;831;-73
2023/10/28 11:13:30;;;;;;;;;;;;;;;29.81;42.64;98993.63;4972925;28;864;-72
2023/10/28 11:15:56;;;;;;;;;;;;;;;30.04;42.05;99002.38;4972975;28;794;-73
2023/10/28 11:18:23;;;;;;;;;;;;;;;30.15;42.55;98995.59;4955708;28;1174;-73
2023/10/28 11:20:50;;;;;;;;;;;;;;;30.29;42.30;99000.69;4973029;28;875;-71
2023/10/28 11:23:17;;;;;;;;;;;;;;;30.24;42.53;98990.19;4972771;28;1421;-69
2023/10/28 11:25:47;;;;;;;;;;;;;;;30.09;42.82;99004.31;4973144;28;779;-71
2023/10/28 11:28:13;;;;;;;;;;;;;;;30.13;42.83;98988.41;4973032;28;867;-72
2023/10/28 11:30:48;;;;;;;;;;;;;;;30.18;41.32;98995.28;4972791;28;815;-73
2023/10/28 11:33:15;;;;;;;;;;;;;;;30.30;40.62;99002.22;4972922;28;854;-72
2023/10/28 11:35:44;;;;;;;;;;;;;;;30.68;40.05;98989.50;4972704;28;839;-73
2023/10/28 11:38:11;;;;;;;;;;;;;;;30.23;39.89;98997.19;4972837;28;854;-76
2023/10/28 11:40:38;;;;;;;;;;;;;;;29.42;40.92;99001.03;4971073;28;1906;-74
2023/10/28 11:43:05;;;;;;;;;;;;;;;29.20;41.52;99002.31;4975032;28;930;-71
2023/10/28 11:45:34;;;;;;;;;;;;;;;28.95;42.30;99004.66;4976509;28;1328;-67
2023/10/28 11:48:00;;;;;;;;;;;;;;;28.70;42.87;99005.69;4976373;28;847;-66
2023/10/28 11:50:27;;;;;;;;;;;;;;;28.76;43.11;98999.09;4976077;28;1894;-66
2023/10/28 11:52:53;;;;;;;;;;;;;;;28.57;43.54;99005.69;4976283;28;843;-66
2023/10/28 11:55:20;;;;;;;;;;;;;;;29.11;43.39;99001.47;4976166;28;804;-65
2023/10/28 11:57:47;;;;;;;;;;;;;;;29.82;42.22;99010.16;4976164;28;811;-68
2023/10/28 12:00:14;;;;;;;;;;;;;;;30.56;40.52;98982.63;4976107;28;830;-64
2023/10/28 12:02:41;;;;;;;;;;;;;;;30.93;39.89;98996.28;4976087;28;851;-68
2023/10/28 12:05:09;;;;;;;;;;;;;;;31.42;38.69;99000.25;4975993;28;954;-68
2023/10/28 12:07:41;;;;;;;;;;;;;;;30.75;39.76;99000.19;4975933;28;823;-67
2023/10/28 12:10:08;;;;;;;;;;;;;;;30.36;40.13;99002.06;4975910;28;1947;-66
2023/10/28 12:12:35;;;;;;;;;;;;;;;30.95;39.47;98995.75;4975844;28;855;-66
2023/10/28 12:15:01;;;;;;;;;;;;;;;31.87;38.61;98995.94;4975886;28;898;-67
2023/10/28 12:17:26;;;;;;;;;;;;;;;31.95;37.88;98993.09;4975747;28;871;-66
2023/10/28 12:19:53;;;;;;;;;;;;;;;32.71;36.98;98994.31;4975612;28;882;-69
2023/10/28 12:22:19;;;;;;;;;;;;;;;33.02;35.64;98983.53;4975397;28;1197;-71
2023/10/28 12:24:46;;;;;;;;;;;;;;;33.39;34.97;98981.03;4974610;28;866;-69
2023/10/28 12:27:13;;;;;;;;;;;;;;;33.07;34.00;98982.56;4974432;28;855;-73
2023/10/28 12:29:40;;;;;;;;;;;;;;;32.55;34.80;98993.63;4974538;28;1906;-69
2023/10/28 12:32:07;;;;;;;;;;;;;;;32.09;35.04;98993.66;4974331;28;890;-66
2023/10/28 12:34:33;;;;;;;;;;;;;;;31.84;35.17;98979.97;4974398;28;866;-67
2023/10/28 12:37:00;;;;;;;;;;;;;;;31.73;35.44;98983.19;4974621;28;882;-68
2023/10/28 12:39:28;;;;;;;;;;;;;;;31.68;35.30;98979.19;4974363;28;894;-68
2023/10/28 12:41:54;;;;;;;;;;;;;;;31.81;35.56;98981.09;4956863;28;1211;-69
2023/10/28 12:44:20;;;;;;;;;;;;;;;31.46;36.08;98985.63;4974303;28;891;-68
2023/10/28 12:46:47;;;;;;;;;;;;;;;31.28;36.04;98978.91;4972647;28;1563;-68
2023/10/28 12:49:13;;;;;;;;;;;;;;;31.24;36.04;98984.22;4973902;28;1886;-68
2023/10/28 12:51:39;;;;;;;;;;;;;;;31.41;35.92;98987.31;4974208;28;962;-68
2023/10/28 12:54:08;;;;;;;;;;;;;;;31.48;35.62;98978.03;4974060;28;874;-68
2023/10/28 12:56:36;;;;;;;;;;;;;;;31.57;35.76;98985.25;4974043;28;855;-68
2023/10/28 12:59:03;;;;;;;;;;;;;;;31.51;35.80;98987.53;4973952;28;871;-70
2023/10/28 13:01:29;;;;;;;;;;;;;;;31.13;35.59;98979.63;4974013;28;835;-70
2023/10/28 13:03:56;;;;;;;;;;;;;;;30.85;36.26;98984.06;4973966;28;851;-70
2023/10/28 13:06:23;;;;;;;;;;;;;;;30.65;36.69;98984.94;4973889;28;902;-70
2023/10/28 13:08:49;;;;;;;;;;;;;;;30.68;36.73;98990.28;4956474;28;1931;-69
2023/10/28 13:11:17;;;;;;;;;;;;;;;30.89;36.74;98992.28;4973843;28;866;-68
2023/10/28 13:13:45;;;;;;;;;;;;;;;31.00;36.07;98986.25;4973734;28;811;-69
2023/10/28 13:16:11;;;;;;;;;;;;;;;31.22;35.54;98992.59;4973811;28;906;-65
2023/10/28 13:18:37;;;;;;;;;;;;;;;31.13;35.58;98985.31;4973692;28;819;-69
2023/10/28 13:21:04;;;;;;;;;;;;;;;31.23;35.31;98988.41;4973568;28;898;-68
2023/10/28 13:24:58;;;;;;;;;;;;;;;30.88;35.38;98993.63;5109911;27;1221;-65
2023/10/28 13:27:25;;;;;;;;;;;;;;;30.93;35.16;98986.97;5109665;28;840;-66
2023/10/28 13:29:52;;;;;;;;;;;;;;;30.55;35.67;98996.09;5109802;28;881;-66
2023/10/28 13:32:19;;;;;;;;;;;;;;;30.16;36.72;98997.91;5109566;28;802;-68